createdAt,value
2024-04-16T00:01:09.279Z,23.51
2024-04-16T00:03:39.908Z,23.50
2024-04-16T00:06:10.384Z,23.49
2024-04-16T00:08:40.594Z,23.47
2024-04-16T00:11:11.804Z,23.45
2024-04-16T00:13:42.378Z,23.42
2024-04-16T00:16:31.359Z,23.46
2024-04-16T00:19:03.551Z,23.42
2024-04-16T00:21:34.421Z,23.39
2024-04-16T00:24:04.792Z,23.37
2024-04-16T00:26:36.629Z,23.45
2024-04-16T00:29:07.807Z,23.43
2024-04-16T00:31:39.376Z,23.36
2024-04-16T00:34:09.716Z,23.34
2024-04-16T00:36:40.042Z,23.34
2024-04-16T00:39:14.465Z,23.34
2024-04-16T00:41:45.056Z,23.31
2024-04-16T00:44:15.791Z,23.31
2024-04-16T00:46:45.900Z,23.29
2024-04-16T00:49:16.688Z,23.29
2024-04-16T00:51:48.092Z,23.30
2024-04-16T00:54:19.176Z,23.27
2024-04-16T00:56:52.013Z,23.23
2024-04-16T00:59:23.427Z,23.29
2024-04-16T01:01:56.999Z,23.26
2024-04-16T01:04:28.962Z,23.22
2024-04-16T01:06:59.450Z,23.19
2024-04-16T01:09:30.104Z,23.19
2024-04-16T01:12:02.480Z,23.19
2024-04-16T01:14:32.930Z,23.12
2024-04-16T01:17:02.884Z,23.09
2024-04-16T01:19:33.948Z,23.08
2024-04-16T01:22:04.781Z,23.03
2024-04-16T01:24:34.775Z,23.02
2024-04-16T01:27:05.117Z,22.99
2024-04-16T01:29:35.819Z,22.96
2024-04-16T01:32:06.522Z,22.96
2024-04-16T01:34:37.355Z,22.95
2024-04-16T01:37:07.845Z,22.94
2024-04-16T01:39:38.644Z,22.89
2024-04-16T01:42:10.155Z,22.94
2024-04-16T01:44:40.602Z,22.94
2024-04-16T01:47:11.400Z,22.98
2024-04-16T01:49:42.375Z,22.95
2024-04-16T01:52:13.510Z,22.96
2024-04-16T01:54:44.146Z,22.98
2024-04-16T01:57:14.443Z,23.08
2024-04-16T01:59:44.865Z,23.01
2024-04-16T02:02:15.150Z,23.03
2024-04-16T02:04:45.864Z,23.05
2024-04-16T02:07:19.274Z,23.08
2024-04-16T02:09:49.907Z,23.03
2024-04-16T02:12:20.460Z,23.06
2024-04-16T02:14:54.299Z,23.13
2024-04-16T02:17:26.415Z,23.05
2024-04-16T02:19:56.837Z,23.05
2024-04-16T02:22:26.884Z,23.02
2024-04-16T02:24:58.208Z,23.03
2024-04-16T02:27:28.957Z,23.01
2024-04-16T02:29:59.217Z,22.96
2024-04-16T02:32:29.128Z,22.96
2024-04-16T02:34:59.952Z,22.96
2024-04-16T02:37:30.797Z,22.91
2024-04-16T02:40:01.005Z,22.89
2024-04-16T02:42:32.522Z,22.89
2024-04-16T02:45:04.511Z,22.98
2024-04-16T02:47:35.425Z,23.06
2024-04-16T02:50:05.533Z,23.13
2024-04-16T02:52:38.703Z,23.12
2024-04-16T02:55:13.305Z,23.15
2024-04-16T02:57:44.572Z,23.15
2024-04-16T03:00:15.176Z,23.20
2024-04-16T03:02:46.060Z,23.10
2024-04-16T03:05:18.993Z,23.09
2024-04-16T03:07:52.659Z,23.08
2024-04-16T03:10:23.239Z,23.20
2024-04-16T03:12:57.949Z,23.27
2024-04-16T03:15:28.497Z,23.19
2024-04-16T03:17:58.796Z,23.24
2024-04-16T03:20:29.521Z,23.39
2024-04-16T03:22:59.456Z,23.39
2024-04-16T03:25:30.158Z,23.29
2024-04-16T03:28:01.840Z,23.43
2024-04-16T03:30:31.872Z,23.74
2024-04-16T03:33:01.781Z,23.64
2024-04-16T03:35:32.197Z,23.47
2024-04-16T03:38:02.569Z,23.43
2024-04-16T03:40:33.896Z,23.50
2024-04-16T03:43:04.502Z,23.81
2024-04-16T03:45:34.507Z,23.78
2024-04-16T03:48:05.342Z,23.74
2024-04-16T03:50:36.069Z,24.00
2024-04-16T03:53:06.829Z,23.85
2024-04-16T03:55:39.190Z,23.78
2024-04-16T03:58:10.797Z,24.01
2024-04-16T04:00:59.698Z,23.89
2024-04-16T04:03:30.991Z,23.67
2024-04-16T04:06:01.536Z,23.54
2024-04-16T04:08:31.625Z,23.46
2024-04-16T04:11:02.649Z,23.42
2024-04-16T04:13:33.623Z,23.36
2024-04-16T04:16:04.106Z,23.31
2024-04-16T04:18:34.423Z,23.29
2024-04-16T04:21:05.903Z,23.20
2024-04-16T04:23:36.822Z,23.09
2024-04-16T04:26:07.638Z,23.03
2024-04-16T04:28:38.118Z,23.01
2024-04-16T04:31:19.593Z,22.99
2024-04-16T04:33:50.871Z,22.95
2024-04-16T04:36:21.256Z,22.92
2024-04-16T04:38:51.516Z,22.84
2024-04-16T04:41:23.955Z,22.84
2024-04-16T04:43:56.719Z,22.79
2024-04-16T04:46:26.866Z,22.75
2024-04-16T04:48:57.248Z,22.73
2024-04-16T04:51:28.574Z,22.73
2024-04-16T04:53:59.384Z,22.71
2024-04-16T04:56:30.586Z,22.65
2024-04-16T04:59:00.828Z,22.69
2024-04-16T05:01:31.679Z,22.69
2024-04-16T05:04:02.904Z,22.69
2024-04-16T05:06:33.307Z,22.71
2024-04-16T05:09:03.183Z,22.68
2024-04-16T05:11:34.350Z,22.69
2024-04-16T05:14:04.961Z,22.68
2024-04-16T05:16:35.867Z,22.67
2024-04-16T05:19:06.568Z,22.68
2024-04-16T05:21:37.486Z,22.68
2024-04-16T05:24:08.274Z,22.68
2024-04-16T05:26:38.627Z,22.68
2024-04-16T05:29:08.560Z,22.71
2024-04-16T05:31:39.454Z,22.67
2024-04-16T05:34:09.688Z,22.64
2024-04-16T05:36:40.887Z,22.67
2024-04-16T05:39:12.292Z,22.65
2024-04-16T05:41:43.683Z,22.64
2024-04-16T05:44:14.599Z,22.64
2024-04-16T05:46:46.053Z,22.67
2024-04-16T05:49:17.145Z,22.67
2024-04-16T05:51:48.835Z,22.68
2024-04-16T05:54:19.267Z,22.69
2024-04-16T05:56:49.193Z,22.69
2024-04-16T05:59:19.746Z,22.68
2024-04-16T06:01:49.820Z,22.67
2024-04-16T06:04:21.454Z,22.67
2024-04-16T06:06:52.655Z,22.68
2024-04-16T06:09:24.509Z,22.68
2024-04-16T06:11:54.840Z,22.69
2024-04-16T06:14:25.962Z,22.69
2024-04-16T06:16:56.800Z,22.67
2024-04-16T06:19:26.949Z,22.71
2024-04-16T06:21:57.587Z,22.72
2024-04-16T06:24:30.496Z,22.69
2024-04-16T06:27:01.653Z,22.69
2024-04-16T06:29:31.843Z,22.69
2024-04-16T06:32:02.325Z,22.71
2024-04-16T06:34:34.048Z,22.64
2024-04-16T06:37:04.802Z,22.64
2024-04-16T06:39:34.761Z,22.62
2024-04-16T06:42:08.359Z,22.61
2024-04-16T06:44:38.740Z,22.62
2024-04-16T06:47:09.227Z,22.61
2024-04-16T06:49:40.071Z,22.57
2024-04-16T06:52:11.161Z,22.52
2024-04-16T06:54:42.981Z,22.52
2024-04-16T06:57:13.584Z,22.55
2024-04-16T06:59:43.920Z,22.54
2024-04-16T07:02:15.451Z,22.52
2024-04-16T07:04:46.117Z,22.54
2024-04-16T07:07:17.497Z,22.55
2024-04-16T07:09:47.810Z,22.52
2024-04-16T07:12:18.023Z,22.52
2024-04-16T07:14:48.788Z,22.54
2024-04-16T07:17:19.498Z,22.55
2024-04-16T07:19:51.889Z,22.54
2024-04-16T07:22:22.288Z,22.54
2024-04-16T07:24:53.426Z,22.52
2024-04-16T07:27:25.196Z,22.52
2024-04-16T07:29:57.324Z,22.50
2024-04-16T07:32:27.820Z,22.52
2024-04-16T07:34:58.618Z,22.52
2024-04-16T07:37:29.565Z,22.54
2024-04-16T07:40:00.111Z,22.51
2024-04-16T07:42:30.129Z,22.54
2024-04-16T07:45:00.985Z,22.55
2024-04-16T07:47:31.721Z,22.55
2024-04-16T07:50:02.035Z,22.52
2024-04-16T07:52:34.585Z,22.52
2024-04-16T07:55:05.862Z,22.57
2024-04-16T07:57:36.946Z,22.52
2024-04-16T08:00:07.859Z,22.54
2024-04-16T08:02:41.240Z,22.60
2024-04-16T08:05:12.175Z,22.61
2024-04-16T08:07:42.837Z,22.60
2024-04-16T08:10:13.512Z,22.61
2024-04-16T08:12:43.428Z,22.61
2024-04-16T08:15:13.758Z,22.60
2024-04-16T08:17:44.588Z,22.61
2024-04-16T08:20:16.713Z,22.57
2024-04-16T08:22:47.705Z,22.55
2024-04-16T08:25:17.703Z,22.55
2024-04-16T08:27:48.762Z,22.60
2024-04-16T08:30:19.293Z,22.61
2024-04-16T08:32:49.949Z,22.57
2024-04-16T08:35:29.817Z,22.58
2024-04-16T08:38:00.732Z,22.58
2024-04-16T08:40:31.511Z,22.55
2024-04-16T08:43:02.325Z,22.55
2024-04-16T08:45:32.621Z,22.61
2024-04-16T08:48:04.481Z,22.60
2024-04-16T08:50:37.416Z,22.61
2024-04-16T08:53:10.463Z,22.64
2024-04-16T08:55:43.656Z,22.62
2024-04-16T08:58:15.482Z,22.67
2024-04-16T09:00:46.759Z,22.67
2024-04-16T09:03:18.585Z,22.67
2024-04-16T09:05:52.960Z,22.72
2024-04-16T09:08:26.836Z,22.72
2024-04-16T09:10:57.617Z,22.72
2024-04-16T09:13:28.581Z,22.72
2024-04-16T09:16:00.715Z,22.79
2024-04-16T09:18:31.831Z,22.82
2024-04-16T09:21:02.551Z,22.81
2024-04-16T09:23:34.878Z,22.79
2024-04-16T09:26:05.450Z,22.78
2024-04-16T09:28:35.814Z,22.75
2024-04-16T09:31:06.859Z,22.69
2024-04-16T09:33:39.223Z,22.65
2024-04-16T09:36:16.887Z,22.62
2024-04-16T09:38:48.620Z,22.61
2024-04-16T09:41:19.211Z,22.58
2024-04-16T09:43:50.469Z,22.55
2024-04-16T09:46:22.654Z,22.52
2024-04-16T09:48:55.078Z,22.52
2024-04-16T09:51:27.600Z,22.50
2024-04-16T09:53:59.996Z,22.50
2024-04-16T09:56:35.619Z,22.52
2024-04-16T09:59:10.672Z,22.57
2024-04-16T10:01:41.980Z,22.55
2024-04-16T10:04:14.316Z,22.60
2024-04-16T10:06:44.823Z,22.62
2024-04-16T10:09:19.750Z,22.62
2024-04-16T10:11:51.962Z,22.62
2024-04-16T10:14:23.282Z,22.65
2024-04-16T10:16:55.773Z,22.76
2024-04-16T10:19:30.589Z,22.76
2024-04-16T10:22:04.731Z,22.75
2024-04-16T10:24:34.932Z,22.73
2024-04-16T10:27:05.277Z,22.75
2024-04-16T10:29:40.311Z,22.81
2024-04-16T10:32:12.742Z,22.79
2024-04-16T10:34:46.189Z,22.82
2024-04-16T10:37:22.957Z,22.89
2024-04-16T10:40:00.120Z,22.96
2024-04-16T10:42:32.690Z,22.95
2024-04-16T10:45:03.632Z,22.94
2024-04-16T10:47:34.473Z,23.01
2024-04-16T10:50:06.745Z,23.01
2024-04-16T10:52:37.643Z,22.98
2024-04-16T10:55:07.887Z,23.05
2024-04-16T10:57:46.834Z,23.09
2024-04-16T11:00:19.362Z,23.12
2024-04-16T11:02:50.319Z,23.18
2024-04-16T11:05:25.128Z,23.24
2024-04-16T11:07:55.609Z,23.30
2024-04-16T11:10:27.219Z,23.37
2024-04-16T11:12:58.248Z,23.50
2024-04-16T11:15:35.835Z,23.57
2024-04-16T11:18:06.556Z,23.67
2024-04-16T11:20:38.188Z,23.77
2024-04-16T11:23:09.359Z,23.88
2024-04-16T11:25:49.057Z,23.91
2024-04-16T11:28:19.822Z,24.04
2024-04-16T11:30:58.067Z,24.11
2024-04-16T11:33:36.475Z,24.14
2024-04-16T11:36:13.360Z,24.21
2024-04-16T11:38:45.432Z,24.35
2024-04-16T11:41:21.376Z,24.36
2024-04-16T11:43:52.781Z,24.51
2024-04-16T11:46:24.146Z,24.66
2024-04-16T11:48:54.691Z,24.69
2024-04-16T11:51:25.554Z,24.73
2024-04-16T11:53:56.243Z,24.77
2024-04-16T11:56:26.114Z,24.75
2024-04-16T11:58:56.792Z,24.70
2024-04-16T12:01:26.959Z,24.75
2024-04-16T12:03:59.067Z,24.80
2024-04-16T12:06:29.925Z,24.86
2024-04-16T12:09:01.078Z,25.15
2024-04-16T12:11:32.802Z,25.33
2024-04-16T12:14:03.732Z,25.48
2024-04-16T12:16:36.459Z,25.61
2024-04-16T12:19:08.124Z,25.73
2024-04-16T12:21:38.604Z,25.65
2024-04-16T12:24:09.493Z,25.73
2024-04-16T12:26:42.627Z,25.89
2024-04-16T12:29:12.792Z,26.00
2024-04-16T12:31:43.211Z,25.97
2024-04-16T12:34:13.805Z,25.94
2024-04-16T12:36:45.153Z,25.94
2024-04-16T12:39:15.746Z,25.83
2024-04-16T12:41:45.707Z,25.75
2024-04-16T12:44:18.634Z,25.66
2024-04-16T12:46:49.761Z,25.66
2024-04-16T12:49:19.974Z,25.61
2024-04-16T12:51:51.315Z,25.57
2024-04-16T12:54:22.146Z,25.57
2024-04-16T12:56:54.149Z,25.55
2024-04-16T12:59:27.188Z,25.48
2024-04-16T13:01:57.676Z,25.44
2024-04-16T13:04:27.733Z,25.46
2024-04-16T13:06:58.248Z,25.44
2024-04-16T13:09:29.380Z,25.37
2024-04-16T13:11:59.917Z,25.35
2024-04-16T13:14:30.277Z,25.31
2024-04-16T13:17:00.756Z,25.34
2024-04-16T13:19:33.733Z,25.38
2024-04-16T13:22:03.960Z,25.46
2024-04-16T13:24:33.970Z,25.52
2024-04-16T13:27:06.747Z,25.55
2024-04-16T13:29:37.409Z,25.62
2024-04-16T13:32:08.502Z,25.59
2024-04-16T13:34:39.408Z,25.54
2024-04-16T13:37:10.974Z,25.51
2024-04-16T13:39:42.595Z,25.54
2024-04-16T13:42:14.119Z,25.62
2024-04-16T13:44:44.622Z,25.68
2024-04-16T13:47:14.870Z,25.65
2024-04-16T13:49:45.596Z,25.64
2024-04-16T13:52:16.800Z,25.58
2024-04-16T13:54:47.528Z,25.58
2024-04-16T13:57:17.636Z,25.58
2024-04-16T13:59:48.163Z,25.51
2024-04-16T14:02:19.460Z,25.44
2024-04-16T14:04:49.987Z,25.42
2024-04-16T14:07:20.301Z,25.49
2024-04-16T14:09:51.275Z,25.59
2024-04-16T14:12:24.807Z,25.73
2024-04-16T14:14:55.393Z,25.79
2024-04-16T14:17:25.424Z,25.88
2024-04-16T14:19:56.509Z,25.90
2024-04-16T14:22:27.742Z,26.03
2024-04-16T14:25:00.143Z,26.10
2024-04-16T14:27:30.372Z,26.26
2024-04-16T14:30:00.653Z,26.37
2024-04-16T14:32:32.859Z,26.34
2024-04-16T14:35:04.262Z,26.41
2024-04-16T14:37:35.253Z,26.40
2024-04-16T14:40:06.565Z,26.36
2024-04-16T14:42:37.039Z,26.36
2024-04-16T14:45:08.052Z,26.30
2024-04-16T14:47:38.595Z,26.27
2024-04-16T14:50:11.832Z,26.19
2024-04-16T14:52:45.875Z,26.14
2024-04-16T14:55:18.373Z,26.06
2024-04-16T14:57:48.961Z,26.06
2024-04-16T15:00:19.747Z,26.06
2024-04-16T15:02:50.138Z,26.06
2024-04-16T15:05:20.556Z,25.97
2024-04-16T15:07:50.754Z,25.99
2024-04-16T15:10:25.979Z,26.03
2024-04-16T15:12:56.921Z,26.04
2024-04-16T15:15:28.105Z,26.02
2024-04-16T15:17:58.515Z,26.09
2024-04-16T15:20:30.244Z,26.09
2024-04-16T15:23:01.468Z,26.03
2024-04-16T15:25:31.826Z,25.90
2024-04-16T15:28:03.068Z,25.75
2024-04-16T15:30:33.852Z,24.55
2024-04-16T15:33:04.132Z,23.34
2024-04-16T15:35:50.573Z,22.62
2024-04-16T15:38:22.315Z,22.36
2024-04-16T15:40:53.825Z,22.20
2024-04-16T15:43:25.660Z,22.12
2024-04-16T15:45:56.477Z,21.99
2024-04-16T15:48:26.581Z,21.82
2024-04-16T15:50:57.584Z,21.69
2024-04-16T15:53:30.468Z,21.56
2024-04-16T15:56:00.933Z,21.45
2024-04-16T15:58:31.744Z,21.35
2024-04-16T16:01:02.890Z,21.27
2024-04-16T16:03:34.033Z,21.30
2024-04-16T16:06:04.393Z,21.31
2024-04-16T16:08:34.298Z,21.30
2024-04-16T16:11:05.179Z,21.34
2024-04-16T16:13:37.009Z,21.31
2024-04-16T16:16:08.890Z,21.31
2024-04-16T16:18:39.690Z,21.30
2024-04-16T16:21:11.150Z,21.35
2024-04-16T16:23:45.080Z,21.45
2024-04-16T16:26:18.045Z,21.44
2024-04-16T16:28:48.609Z,21.38
2024-04-16T16:31:21.326Z,21.31
2024-04-16T16:33:53.055Z,21.38
2024-04-16T16:36:24.697Z,21.41
2024-04-16T16:38:54.966Z,21.46
2024-04-16T16:41:27.029Z,21.52
2024-04-16T16:43:58.515Z,21.56
2024-04-16T16:46:30.259Z,21.55
2024-04-16T16:49:00.512Z,21.48
2024-04-16T16:51:31.644Z,21.51
2024-04-16T16:54:02.799Z,21.56
2024-04-16T16:56:33.599Z,21.51
2024-04-16T16:59:04.201Z,21.55
2024-04-16T17:01:35.229Z,21.54
2024-04-16T17:04:07.185Z,21.49
2024-04-16T17:06:40.603Z,21.49
2024-04-16T17:09:11.009Z,21.51
2024-04-16T17:11:41.120Z,21.49
2024-04-16T17:14:12.224Z,21.46
2024-04-16T17:16:43.446Z,21.45
2024-04-16T17:19:16.438Z,21.41
2024-04-16T17:21:46.582Z,21.46
2024-04-16T17:24:16.867Z,21.58
2024-04-16T17:26:47.827Z,21.58
2024-04-16T17:29:17.731Z,21.59
2024-04-16T17:31:48.276Z,21.65
2024-04-16T17:34:19.840Z,21.67
2024-04-16T17:36:53.117Z,21.73
2024-04-16T17:39:23.321Z,21.71
2024-04-16T17:41:53.318Z,21.81
2024-04-16T17:44:24.413Z,21.75
2024-04-16T17:46:56.124Z,21.76
2024-04-16T17:49:27.081Z,21.78
2024-04-16T17:51:57.646Z,21.83
2024-04-16T17:54:27.673Z,21.71
2024-04-16T17:56:59.239Z,21.76
2024-04-16T17:59:29.920Z,21.79
2024-04-16T18:02:00.818Z,21.86
2024-04-16T18:04:33.128Z,21.93
2024-04-16T18:07:07.248Z,21.97
2024-04-16T18:09:41.750Z,22.04
2024-04-16T18:12:12.802Z,22.02
2024-04-16T18:14:42.935Z,22.03
2024-04-16T18:17:15.739Z,22.00
2024-04-16T18:19:46.584Z,22.09
2024-04-16T18:22:16.555Z,21.97
2024-04-16T18:24:48.781Z,22.17
2024-04-16T18:27:19.413Z,22.27
2024-04-16T18:29:49.921Z,22.27
2024-04-16T18:32:20.803Z,22.24
2024-04-16T18:34:51.012Z,22.17
2024-04-16T18:37:22.954Z,22.20
2024-04-16T18:39:53.957Z,22.29
2024-04-16T18:42:24.489Z,22.27
2024-04-16T18:44:54.635Z,22.33
2024-04-16T18:47:25.775Z,22.52
2024-04-16T18:49:57.506Z,22.54
2024-04-16T18:52:29.815Z,22.54
2024-04-16T18:55:02.258Z,22.57
2024-04-16T18:57:32.854Z,22.62
2024-04-16T19:00:03.546Z,22.72
2024-04-16T19:02:33.708Z,22.67
2024-04-16T19:05:04.349Z,22.73
2024-04-16T19:07:36.501Z,22.69
2024-04-16T19:10:07.615Z,22.79
2024-04-16T19:12:38.626Z,22.71
2024-04-16T19:15:10.006Z,22.67
2024-04-16T19:17:40.587Z,22.64
2024-04-16T19:20:13.126Z,22.62
2024-04-16T19:22:45.716Z,22.62
2024-04-16T19:25:16.274Z,22.64
2024-04-16T19:27:47.603Z,22.58
2024-04-16T19:30:18.239Z,22.61
2024-04-16T19:32:49.602Z,22.58
2024-04-16T19:35:20.798Z,22.57
2024-04-16T19:37:52.885Z,22.64
2024-04-16T19:40:25.071Z,22.57
2024-04-16T19:42:56.076Z,22.62
2024-04-16T19:45:28.200Z,22.57
2024-04-16T19:47:59.062Z,22.60
2024-04-16T19:50:30.612Z,22.58
2024-04-16T19:53:02.095Z,22.54
2024-04-16T19:55:33.240Z,22.51
2024-04-16T19:58:03.339Z,22.54
2024-04-16T20:00:35.282Z,22.54
2024-04-16T20:03:06.448Z,22.48
2024-04-16T20:05:38.262Z,22.45
2024-04-16T20:08:09.242Z,22.45
2024-04-16T20:10:45.246Z,22.45
2024-04-16T20:13:17.264Z,22.43
2024-04-16T20:15:47.722Z,22.50
2024-04-16T20:18:18.145Z,22.51
2024-04-16T20:20:50.318Z,22.50
2024-04-16T20:23:21.256Z,22.51
2024-04-16T20:26:06.052Z,22.45
2024-04-16T20:28:38.214Z,22.43
2024-04-16T20:31:10.011Z,22.39
2024-04-16T20:33:40.737Z,22.29
2024-04-16T20:36:11.170Z,22.21
2024-04-16T20:38:41.827Z,22.14
2024-04-16T20:41:13.354Z,22.14
2024-04-16T20:43:44.493Z,22.13
2024-04-16T20:46:15.445Z,22.09
2024-04-16T20:48:47.021Z,22.04
2024-04-16T20:51:20.524Z,22.04
2024-04-16T20:53:51.506Z,22.04
2024-04-16T20:56:21.446Z,22.03
2024-04-16T20:58:52.167Z,22.00
2024-04-16T21:01:22.966Z,22.00
2024-04-16T21:03:53.762Z,22.00
2024-04-16T21:06:24.859Z,22.00
2024-04-16T21:08:55.096Z,21.96
2024-04-16T21:11:27.734Z,21.94
2024-04-16T21:13:59.050Z,21.94
2024-04-16T21:16:30.086Z,21.99
2024-04-16T21:19:00.700Z,21.99
2024-04-16T21:21:30.747Z,21.94
2024-04-16T21:24:02.018Z,21.94
2024-04-16T21:26:36.347Z,21.97
2024-04-16T21:29:07.071Z,21.97
2024-04-16T21:31:37.519Z,21.99
2024-04-16T21:34:08.515Z,21.96
2024-04-16T21:36:39.092Z,21.96
2024-04-16T21:39:09.305Z,21.94
2024-04-16T21:41:39.211Z,22.00
2024-04-16T21:44:11.598Z,22.00
2024-04-16T21:46:42.925Z,21.99
2024-04-16T21:49:13.627Z,22.02
2024-04-16T21:51:43.539Z,22.02
2024-04-16T21:54:14.012Z,21.99
2024-04-16T21:56:45.214Z,22.03
2024-04-16T21:59:16.221Z,21.99
2024-04-16T22:01:46.972Z,22.04
2024-04-16T22:04:17.413Z,22.04
2024-04-16T22:06:47.867Z,22.06
2024-04-16T22:09:20.150Z,22.03
2024-04-16T22:11:51.222Z,22.02
2024-04-16T22:14:22.646Z,22.06
2024-04-16T22:16:52.963Z,22.07
2024-04-16T22:19:23.860Z,22.14
2024-04-16T22:21:54.258Z,22.14
2024-04-16T22:24:24.244Z,22.16
2024-04-16T22:26:54.574Z,22.18
2024-04-16T22:29:25.033Z,22.20
2024-04-16T22:31:56.710Z,22.17
2024-04-16T22:34:27.081Z,22.20
2024-04-16T22:36:58.297Z,22.18
2024-04-16T22:39:29.210Z,22.17
2024-04-16T22:42:00.105Z,22.16
2024-04-16T22:44:30.269Z,22.18
2024-04-16T22:47:00.291Z,22.23
2024-04-16T22:49:30.800Z,22.18
2024-04-16T22:52:01.511Z,22.20
2024-04-16T22:54:32.582Z,22.00
2024-04-16T22:57:02.723Z,21.85
2024-04-16T22:59:33.139Z,21.55
2024-04-16T23:02:03.727Z,21.30
2024-04-16T23:04:37.003Z,21.24
2024-04-16T23:07:07.233Z,21.24
2024-04-16T23:09:38.066Z,21.14
2024-04-16T23:12:09.085Z,21.14
2024-04-16T23:14:39.797Z,21.05
2024-04-16T23:17:09.751Z,21.05
2024-04-16T23:19:40.393Z,20.94
2024-04-16T23:22:11.021Z,20.87
2024-04-16T23:24:41.523Z,20.76
2024-04-16T23:27:11.470Z,20.73
2024-04-16T23:29:43.891Z,20.66
2024-04-16T23:32:15.677Z,20.67
2024-04-16T23:34:46.818Z,20.59
2024-04-16T23:37:18.661Z,20.55
2024-04-16T23:39:48.942Z,20.52
2024-04-16T23:42:19.794Z,20.45
2024-04-16T23:44:50.551Z,20.43
2024-04-16T23:47:21.422Z,20.45
2024-04-16T23:49:51.632Z,20.43
2024-04-16T23:52:22.710Z,20.29
2024-04-16T23:54:53.089Z,20.33
2024-04-16T23:57:24.126Z,20.38
2024-04-16T23:59:55.324Z,20.42
